createdAt,value
2018-03-08T00:01:06.752Z,99.90
2018-03-08T00:03:41.196Z,99.50
2018-03-08T00:06:14.781Z,99.50
2018-03-08T00:08:48.580Z,99.50
2018-03-08T00:11:22.140Z,99.40
2018-03-08T00:13:55.760Z,99.30
2018-03-08T00:16:30.375Z,99.00
2018-03-08T00:19:04.053Z,98.90
2018-03-08T00:21:38.180Z,98.40
2018-03-08T00:24:12.714Z,98.20
2018-03-08T00:26:46.341Z,98.20
2018-03-08T00:29:20.063Z,98.20
2018-03-08T00:31:53.546Z,98.20
2018-03-08T00:34:27.240Z,98.10
2018-03-08T00:37:00.778Z,97.90
2018-03-08T00:39:34.325Z,97.60
2018-03-08T00:42:07.850Z,97.60
2018-03-08T00:44:42.168Z,96.40
2018-03-08T00:47:15.690Z,96.40
2018-03-08T00:49:49.241Z,96.20
2018-03-08T00:52:22.832Z,96.40
2018-03-08T00:54:56.414Z,96.40
2018-03-08T00:57:30.570Z,96.90
2018-03-08T01:00:04.247Z,97.30
2018-03-08T01:02:38.562Z,98.00
2018-03-08T01:05:12.132Z,98.00
2018-03-08T01:07:45.660Z,98.20
2018-03-08T01:10:19.264Z,98.60
2018-03-08T01:12:53.588Z,99.20
2018-03-08T01:15:27.303Z,99.20
2018-03-08T01:18:00.808Z,99.30
2018-03-08T01:20:34.406Z,99.40
2018-03-08T01:23:08.804Z,99.50
2018-03-08T01:25:43.118Z,99.80
2018-03-08T01:28:16.849Z,99.70
2018-03-08T01:30:50.493Z,99.90
2018-03-08T01:33:24.263Z,99.90
2018-03-08T01:35:57.802Z,99.60
2018-03-08T01:38:32.155Z,98.90
2018-03-08T01:41:06.658Z,98.40
2018-03-08T01:43:40.262Z,98.50
2018-03-08T01:46:13.848Z,98.50
2018-03-08T01:48:47.536Z,98.50
2018-03-08T01:51:21.122Z,98.50
2018-03-08T01:53:54.648Z,98.10
2018-03-08T01:56:28.170Z,98.20
2018-03-08T01:59:01.774Z,98.10
2018-03-08T02:01:35.361Z,98.30
2018-03-08T02:04:09.693Z,98.50
2018-03-08T02:06:44.004Z,98.90
2018-03-08T02:09:18.521Z,99.10
2018-03-08T02:11:52.836Z,99.10
2018-03-08T02:14:26.448Z,99.10
2018-03-08T02:17:00.085Z,99.10
2018-03-08T02:19:34.374Z,98.80
2018-03-08T02:22:08.188Z,98.70
2018-03-08T02:24:41.756Z,98.90
2018-03-08T02:27:15.405Z,98.40
2018-03-08T02:29:48.969Z,98.00
2018-03-08T02:32:22.594Z,97.70
2018-03-08T02:34:56.240Z,98.00
2018-03-08T02:37:29.825Z,98.00
2018-03-08T02:40:04.098Z,98.20
2018-03-08T02:42:37.681Z,98.10
2018-03-08T02:45:11.290Z,98.20
2018-03-08T02:47:44.840Z,97.90
2018-03-08T02:50:19.225Z,96.60
2018-03-08T02:52:52.722Z,96.60
2018-03-08T02:55:26.282Z,96.70
2018-03-08T02:57:59.854Z,96.60
2018-03-08T03:00:33.404Z,96.50
2018-03-08T03:03:07.725Z,95.30
2018-03-08T03:05:41.350Z,95.30
2018-03-08T03:08:14.925Z,96.20
2018-03-08T03:10:48.451Z,97.10
2018-03-08T03:13:22.028Z,98.00
2018-03-08T03:15:55.624Z,98.30
2018-03-08T03:18:29.912Z,99.60
2018-03-08T03:21:03.436Z,99.50
2018-03-08T03:23:37.865Z,98.60
2018-03-08T03:26:11.451Z,98.60
2018-03-08T03:28:45.037Z,97.90
2018-03-08T03:31:18.571Z,97.40
2018-03-08T03:33:52.883Z,98.20
2018-03-08T03:36:27.193Z,98.50
2018-03-08T03:39:00.768Z,98.50
2018-03-08T03:41:35.049Z,97.90
2018-03-08T03:44:08.732Z,97.90
2018-03-08T03:46:42.267Z,98.20
2018-03-08T03:49:15.821Z,98.70
2018-03-08T03:51:49.400Z,98.50
2018-03-08T03:54:22.917Z,98.00
2018-03-08T03:56:57.429Z,98.30
2018-03-08T03:59:31.752Z,99.20
2018-03-08T04:02:05.319Z,99.20
2018-03-08T04:04:39.064Z,99.50
2018-03-08T04:07:12.629Z,99.20
2018-03-08T04:09:46.207Z,99.10
2018-03-08T04:12:19.755Z,98.90
2018-03-08T04:14:53.449Z,98.50
2018-03-08T04:17:27.196Z,99.30
2018-03-08T04:20:00.741Z,99.90
2018-03-08T04:22:35.100Z,99.90
2018-03-08T04:25:08.659Z,99.90
2018-03-08T04:27:42.306Z,99.90
2018-03-08T04:30:16.975Z,99.60
2018-03-08T04:32:50.589Z,99.30
2018-03-08T04:35:24.370Z,99.40
2018-03-08T04:37:58.023Z,99.10
2018-03-08T04:40:31.662Z,99.10
2018-03-08T04:43:05.456Z,98.80
2018-03-08T04:45:39.027Z,98.60
2018-03-08T04:48:13.428Z,99.00
2018-03-08T04:50:47.145Z,98.90
2018-03-08T04:53:20.939Z,99.40
2018-03-08T04:55:55.517Z,99.90
2018-03-08T04:58:29.420Z,99.90
2018-03-08T05:01:03.989Z,99.90
2018-03-08T05:03:37.632Z,99.90
2018-03-08T05:06:11.462Z,99.90
2018-03-08T05:08:45.337Z,99.90
2018-03-08T05:11:19.098Z,99.90
2018-03-08T05:13:52.885Z,99.90
2018-03-08T05:16:26.704Z,99.90
2018-03-08T05:19:00.523Z,99.90
2018-03-08T05:21:35.132Z,99.90
2018-03-08T05:24:08.889Z,99.90
2018-03-08T05:26:42.738Z,99.90
2018-03-08T05:29:16.516Z,99.90
2018-03-08T05:31:50.282Z,99.90
2018-03-08T05:34:24.813Z,99.90
2018-03-08T05:36:58.646Z,99.90
2018-03-08T05:39:33.325Z,99.90
2018-03-08T05:42:07.141Z,99.90
2018-03-08T05:44:40.953Z,99.90
2018-03-08T05:47:14.686Z,99.90
2018-03-08T05:49:48.520Z,99.90
2018-03-08T05:52:22.260Z,99.90
2018-03-08T05:54:56.070Z,99.90
2018-03-08T05:57:29.663Z,99.90
2018-03-08T06:00:03.505Z,99.90
2018-03-08T06:02:37.172Z,99.90
2018-03-08T06:05:10.995Z,99.90
2018-03-08T06:07:44.830Z,99.90
2018-03-08T06:10:18.673Z,99.90
2018-03-08T06:12:52.433Z,99.90
2018-03-08T06:15:26.073Z,99.90
2018-03-08T06:17:59.898Z,99.60
2018-03-08T06:20:33.677Z,98.40
2018-03-08T06:23:08.308Z,97.90
2018-03-08T06:25:41.929Z,97.80
2018-03-08T06:28:15.689Z,97.20
2018-03-08T06:30:49.537Z,96.20
2018-03-08T06:33:23.420Z,96.00
2018-03-08T06:35:57.097Z,95.00
2018-03-08T06:38:30.847Z,94.00
2018-03-08T06:41:05.396Z,93.30
2018-03-08T06:43:39.189Z,93.30
2018-03-08T06:46:13.083Z,93.50
2018-03-08T06:48:46.880Z,93.10
2018-03-08T06:51:20.691Z,93.30
2018-03-08T06:53:54.289Z,93.20
2018-03-08T06:56:28.927Z,93.20
2018-03-08T06:59:02.810Z,93.10
2018-03-08T07:01:37.361Z,91.80
2018-03-08T07:04:11.158Z,91.70
2018-03-08T07:06:44.911Z,91.70
2018-03-08T07:09:18.809Z,91.40
2018-03-08T07:11:52.551Z,91.40
2018-03-08T07:14:26.330Z,91.10
2018-03-08T07:17:00.091Z,91.40
2018-03-08T07:19:33.936Z,91.50
2018-03-08T07:22:07.755Z,91.60
2018-03-08T07:24:41.567Z,91.90
2018-03-08T07:27:15.352Z,92.10
2018-03-08T07:29:49.113Z,92.50
2018-03-08T07:32:22.974Z,92.90
2018-03-08T07:34:56.755Z,92.70
2018-03-08T07:37:30.551Z,92.80
2018-03-08T07:40:04.256Z,92.70
2018-03-08T07:42:37.995Z,92.90
2018-03-08T07:45:11.528Z,93.10
2018-03-08T07:47:45.054Z,92.30
2018-03-08T07:50:18.572Z,91.30
2018-03-08T07:52:52.275Z,90.30
2018-03-08T07:55:25.871Z,90.10
2018-03-08T07:58:00.189Z,90.30
2018-03-08T08:00:33.759Z,90.30
2018-03-08T08:03:07.367Z,87.40
2018-03-08T08:05:52.817Z,84.80
2018-03-08T08:21:55.918Z,79.80
2018-03-08T08:24:29.562Z,76.60
2018-03-08T08:27:03.139Z,74.40
2018-03-08T08:29:36.858Z,73.30
2018-03-08T08:32:10.403Z,70.00
2018-03-08T08:34:43.955Z,68.50
2018-03-08T08:37:17.486Z,69.00
2018-03-08T08:39:50.996Z,63.60
2018-03-08T08:42:24.622Z,60.10
2018-03-08T08:44:58.176Z,62.10
2018-03-08T08:47:31.851Z,62.50
2018-03-08T08:50:05.429Z,61.10
2018-03-08T08:52:39.009Z,60.20
2018-03-08T08:55:12.750Z,59.70
2018-03-08T08:57:46.324Z,61.00
2018-03-08T09:00:19.852Z,60.50
2018-03-08T09:02:53.426Z,59.60
2018-03-08T09:05:27.752Z,59.00
2018-03-08T09:08:01.333Z,59.00
2018-03-08T09:10:34.870Z,58.10
2018-03-08T09:13:08.468Z,58.40
2018-03-08T09:15:42.770Z,56.60
2018-03-08T09:18:16.478Z,56.60
2018-03-08T09:20:50.125Z,56.10
2018-03-08T09:23:23.697Z,56.60
2018-03-08T09:25:57.215Z,54.90
2018-03-08T09:28:30.900Z,55.30
2018-03-08T09:31:05.294Z,55.10
2018-03-08T09:33:38.981Z,55.10
2018-03-08T09:36:12.596Z,55.80
2018-03-08T09:38:46.196Z,56.20
2018-03-08T09:41:19.783Z,53.30
2018-03-08T09:43:54.212Z,53.00
2018-03-08T09:46:28.633Z,52.80
2018-03-08T09:49:02.364Z,52.70
2018-03-08T09:51:35.908Z,52.00
2018-03-08T09:54:09.587Z,51.30
2018-03-08T09:56:43.150Z,50.60
2018-03-08T09:59:16.649Z,51.00
2018-03-08T10:01:50.197Z,49.70
2018-03-08T10:04:23.737Z,51.00
2018-03-08T10:06:57.342Z,51.30
2018-03-08T10:09:30.926Z,50.50
2018-03-08T10:12:05.260Z,48.80
2018-03-08T10:14:38.955Z,48.80
2018-03-08T10:17:12.493Z,48.70
2018-03-08T10:19:45.991Z,47.30
2018-03-08T10:22:20.282Z,47.00
2018-03-08T10:24:53.994Z,47.00
2018-03-08T10:27:27.660Z,47.30
2018-03-08T10:30:01.304Z,48.10
2018-03-08T10:32:34.812Z,46.90
2018-03-08T10:35:09.106Z,47.00
2018-03-08T10:37:42.900Z,46.90
2018-03-08T10:40:16.418Z,46.10
2018-03-08T10:42:50.738Z,44.70
2018-03-08T10:45:24.429Z,45.10
2018-03-08T10:47:57.950Z,45.60
2018-03-08T10:50:31.522Z,46.20
2018-03-08T10:53:05.060Z,45.20
2018-03-08T10:55:39.357Z,45.00
2018-03-08T10:58:13.768Z,45.20
2018-03-08T11:00:53.763Z,45.70
2018-03-08T11:03:48.094Z,45.60
2018-03-08T11:06:28.744Z,44.10
2018-03-08T11:09:02.464Z,43.80
2018-03-08T11:11:36.906Z,44.60
2018-03-08T11:14:10.625Z,44.60
2018-03-08T11:16:44.195Z,44.00
2018-03-08T11:19:17.731Z,43.30
2018-03-08T11:21:51.264Z,43.60
2018-03-08T11:24:25.626Z,43.90
2018-03-08T11:27:00.119Z,43.40
2018-03-08T11:29:33.640Z,43.40
2018-03-08T11:32:07.210Z,42.60
2018-03-08T11:34:40.745Z,42.50
2018-03-08T11:37:15.127Z,42.90
2018-03-08T11:39:48.748Z,42.90
2018-03-08T11:42:22.316Z,42.70
2018-03-08T11:44:55.859Z,43.20
2018-03-08T11:47:29.460Z,42.90
2018-03-08T11:50:02.999Z,43.10
2018-03-08T11:52:36.576Z,42.70
2018-03-08T11:55:10.166Z,42.80
2018-03-08T11:57:43.755Z,41.80
2018-03-08T12:00:17.340Z,42.20
2018-03-08T12:02:51.081Z,41.90
2018-03-08T12:05:24.623Z,42.40
2018-03-08T12:07:58.229Z,42.40
2018-03-08T12:10:32.560Z,41.20
2018-03-08T12:13:06.217Z,40.90
2018-03-08T12:15:39.793Z,40.10
2018-03-08T12:18:14.179Z,40.20
2018-03-08T12:20:48.629Z,38.80
2018-03-08T12:23:22.205Z,38.80
2018-03-08T12:25:55.723Z,39.30
2018-03-08T12:28:29.513Z,40.50
2018-03-08T12:31:03.002Z,39.80
2018-03-08T12:33:36.540Z,39.20
2018-03-08T12:36:10.129Z,39.50
2018-03-08T12:38:43.709Z,38.80
2018-03-08T12:41:17.353Z,38.70
2018-03-08T12:43:50.895Z,38.70
2018-03-08T12:46:25.318Z,37.60
2018-03-08T12:48:58.941Z,37.50
2018-03-08T12:51:32.504Z,40.00
2018-03-08T12:54:06.058Z,39.50
2018-03-08T12:56:39.589Z,39.90
2018-03-08T12:59:14.056Z,37.60
2018-03-08T13:01:47.672Z,37.60
2018-03-08T13:04:21.319Z,36.60
2018-03-08T13:06:54.804Z,35.10
2018-03-08T13:09:28.382Z,34.90
2018-03-08T13:12:01.950Z,35.10
2018-03-08T13:14:35.546Z,34.00
2018-03-08T13:17:09.176Z,34.90
2018-03-08T13:19:42.737Z,34.70
2018-03-08T13:22:16.276Z,34.50
2018-03-08T13:24:49.838Z,33.90
2018-03-08T13:27:23.453Z,33.50
2018-03-08T13:29:57.140Z,32.40
2018-03-08T13:32:31.480Z,33.40
2018-03-08T13:35:05.172Z,33.30
2018-03-08T13:37:38.717Z,32.30
2018-03-08T13:40:12.265Z,33.50
2018-03-08T13:42:45.883Z,33.00
2018-03-08T13:45:19.613Z,33.00
2018-03-08T13:47:53.152Z,32.60
2018-03-08T13:50:26.806Z,32.70
2018-03-08T13:53:00.312Z,31.30
2018-03-08T13:55:34.602Z,32.40
2018-03-08T13:58:08.278Z,32.40
2018-03-08T14:00:41.901Z,33.00
2018-03-08T14:03:16.219Z,32.30
2018-03-08T14:05:49.809Z,32.30
2018-03-08T14:08:23.286Z,32.80
2018-03-08T14:10:58.349Z,33.20
2018-03-08T14:13:32.665Z,33.40
2018-03-08T14:16:06.400Z,33.50
2018-03-08T14:18:39.942Z,33.50
2018-03-08T14:21:13.560Z,32.70
2018-03-08T14:23:47.172Z,33.40
2018-03-08T14:26:20.713Z,33.80
2018-03-08T14:28:54.354Z,32.30
2018-03-08T14:31:28.688Z,32.20
2018-03-08T14:34:03.220Z,32.90
2018-03-08T14:36:36.950Z,32.80
2018-03-08T14:39:11.232Z,32.30
2018-03-08T14:41:44.815Z,32.20
2018-03-08T14:44:18.456Z,32.00
2018-03-08T14:46:52.026Z,31.30
2018-03-08T14:49:25.556Z,31.50
2018-03-08T14:51:59.131Z,32.10
2018-03-08T14:54:32.664Z,31.60
2018-03-08T14:57:06.144Z,32.50
2018-03-08T14:59:39.732Z,32.10
2018-03-08T15:02:13.333Z,32.60
2018-03-08T15:04:46.913Z,32.30
2018-03-08T15:07:21.256Z,31.60
2018-03-08T15:09:54.963Z,31.60
2018-03-08T15:12:28.501Z,31.80
2018-03-08T15:15:02.978Z,30.30
2018-03-08T15:17:36.728Z,30.30
2018-03-08T15:20:10.343Z,30.90
2018-03-08T15:22:43.927Z,31.00
2018-03-08T15:25:17.500Z,31.20
2018-03-08T15:27:51.167Z,30.70
2018-03-08T15:30:25.603Z,31.20
2018-03-08T15:33:00.118Z,30.90
2018-03-08T15:35:33.826Z,30.90
2018-03-08T15:38:07.346Z,30.50
2018-03-08T15:40:40.861Z,31.80
2018-03-08T15:43:14.436Z,31.30
2018-03-08T15:45:48.025Z,30.30
2018-03-08T15:48:22.469Z,31.30
2018-03-08T15:50:56.038Z,31.20
2018-03-08T15:53:29.649Z,30.60
2018-03-08T15:56:04.073Z,30.30
2018-03-08T15:58:37.883Z,30.30
2018-03-08T16:01:11.625Z,31.30
2018-03-08T16:03:45.116Z,30.20
2018-03-08T16:19:48.292Z,30.80
2018-03-08T16:22:21.869Z,31.90
2018-03-08T16:24:55.415Z,33.20
2018-03-08T16:27:29.721Z,33.70
2018-03-08T16:30:04.185Z,33.80
2018-03-08T16:32:38.703Z,33.30
2018-03-08T16:35:13.222Z,33.10
2018-03-08T16:37:46.852Z,33.10
2018-03-08T16:40:20.425Z,33.80
2018-03-08T16:42:54.762Z,35.20
2018-03-08T16:45:28.462Z,35.20
2018-03-08T16:48:02.249Z,36.10
2018-03-08T16:50:35.802Z,36.10
2018-03-08T16:53:09.366Z,36.40
2018-03-08T16:55:43.179Z,37.20
2018-03-08T16:58:17.692Z,40.10
2018-03-08T17:00:52.038Z,40.30
2018-03-08T17:03:25.780Z,40.30
2018-03-08T17:05:59.432Z,39.40
2018-03-08T17:08:33.737Z,39.40
2018-03-08T17:11:08.147Z,40.20
2018-03-08T17:13:41.836Z,40.20
2018-03-08T17:16:15.501Z,40.10
2018-03-08T17:18:49.174Z,40.70
2018-03-08T17:21:22.666Z,41.70
2018-03-08T17:23:56.365Z,41.90
2018-03-08T17:26:29.957Z,42.40
2018-03-08T17:29:03.537Z,43.40
2018-03-08T17:31:37.066Z,43.40
2018-03-08T17:34:10.654Z,42.70
2018-03-08T17:36:44.314Z,43.50
2018-03-08T17:39:17.839Z,44.40
2018-03-08T17:41:51.376Z,43.70
2018-03-08T17:44:24.941Z,44.30
2018-03-08T17:46:58.489Z,44.50
2018-03-08T17:49:32.965Z,44.90
2018-03-08T17:52:06.577Z,44.80
2018-03-08T17:54:41.004Z,46.20
2018-03-08T17:57:14.714Z,46.20
2018-03-08T17:59:48.595Z,47.10
2018-03-08T18:02:22.100Z,46.40
2018-03-08T18:04:55.726Z,46.30
2018-03-08T18:07:29.301Z,46.90
2018-03-08T18:10:02.889Z,47.30
2018-03-08T18:12:37.419Z,48.40
2018-03-08T18:15:10.990Z,48.40
2018-03-08T18:17:44.629Z,48.90
2018-03-08T18:20:18.297Z,48.80
2018-03-08T18:22:51.966Z,49.10
2018-03-08T18:25:26.253Z,49.50
2018-03-08T18:28:00.763Z,49.70
2018-03-08T18:30:34.475Z,49.70
2018-03-08T18:33:08.165Z,49.30
2018-03-08T18:35:41.685Z,49.40
2018-03-08T18:38:15.309Z,49.60
2018-03-08T18:40:49.045Z,49.70
2018-03-08T18:43:22.813Z,50.10
2018-03-08T18:45:56.328Z,50.30
2018-03-08T18:48:29.896Z,50.80
2018-03-08T18:51:03.493Z,51.30
2018-03-08T18:53:37.026Z,51.40
2018-03-08T18:56:10.719Z,51.50
2018-03-08T18:58:44.347Z,51.70
2018-03-08T19:01:18.089Z,51.90
2018-03-08T19:03:51.710Z,52.00
2018-03-08T19:06:25.285Z,52.20
2018-03-08T19:08:59.002Z,52.20
2018-03-08T19:11:32.620Z,53.10
2018-03-08T19:14:06.211Z,52.70
2018-03-08T19:16:39.796Z,53.20
2018-03-08T19:19:13.331Z,53.10
2018-03-08T19:21:46.817Z,53.40
2018-03-08T19:24:20.418Z,53.40
2018-03-08T19:26:54.231Z,53.40
2018-03-08T19:29:27.782Z,54.00
2018-03-08T19:32:01.341Z,54.00
2018-03-08T19:34:34.902Z,54.00
2018-03-08T19:37:08.418Z,53.80
2018-03-08T19:39:41.992Z,54.00
2018-03-08T19:42:16.522Z,55.60
2018-03-08T19:44:50.116Z,55.60
2018-03-08T19:47:23.717Z,55.40
2018-03-08T19:49:57.327Z,55.90
2018-03-08T19:52:31.046Z,56.60
2018-03-08T19:55:04.565Z,56.80
2018-03-08T19:57:38.226Z,57.00
2018-03-08T20:00:11.928Z,57.50
2018-03-08T20:02:46.256Z,57.60
2018-03-08T20:05:20.080Z,57.40
2018-03-08T20:07:53.729Z,57.20
2018-03-08T20:10:27.426Z,57.60
2018-03-08T20:13:01.096Z,58.20
2018-03-08T20:15:34.688Z,58.50
2018-03-08T20:18:09.077Z,58.20
2018-03-08T20:20:42.616Z,58.10
2018-03-08T20:23:16.198Z,58.20
2018-03-08T20:25:49.860Z,57.70
2018-03-08T20:28:24.299Z,58.50
2018-03-08T20:30:57.818Z,58.30
2018-03-08T20:33:31.439Z,58.80
2018-03-08T20:36:05.724Z,59.30
2018-03-08T20:38:39.514Z,59.20
2018-03-08T20:41:13.246Z,59.30
2018-03-08T20:43:46.724Z,59.00
2018-03-08T20:46:21.042Z,59.50
2018-03-08T20:48:54.634Z,59.50
2018-03-08T20:51:28.156Z,59.00
2018-03-08T20:54:01.724Z,59.60
2018-03-08T20:56:36.875Z,59.60
2018-03-08T20:59:10.457Z,59.60
2018-03-08T21:01:44.009Z,59.70
2018-03-08T21:04:17.568Z,60.40
2018-03-08T21:06:51.107Z,60.80
2018-03-08T21:09:24.680Z,60.50
2018-03-08T21:11:58.310Z,60.80
2018-03-08T21:14:32.706Z,61.30
2018-03-08T21:17:07.253Z,62.40
2018-03-08T21:19:40.894Z,62.30
2018-03-08T21:22:14.687Z,62.90
2018-03-08T21:24:48.518Z,64.80
2018-03-08T21:27:22.313Z,64.30
2018-03-08T21:29:56.184Z,64.10
2018-03-08T21:32:30.741Z,64.20
2018-03-08T21:35:04.446Z,64.10
2018-03-08T21:37:38.165Z,64.00
2018-03-08T21:40:11.966Z,64.80
2018-03-08T21:42:45.779Z,65.40
2018-03-08T21:45:19.502Z,66.30
2018-03-08T21:47:53.103Z,67.50
2018-03-08T21:50:26.646Z,68.30
2018-03-08T21:53:00.536Z,70.00
2018-03-08T21:55:34.197Z,71.30
2018-03-08T21:58:07.960Z,80.40
2018-03-08T22:00:41.687Z,88.40
2018-03-08T22:03:15.462Z,89.90
2018-03-08T22:05:49.090Z,86.20
2018-03-08T22:08:22.844Z,82.80
2018-03-08T22:10:56.597Z,81.20
2018-03-08T22:13:31.052Z,79.40
2018-03-08T22:16:05.517Z,80.50
2018-03-08T22:18:39.162Z,80.50
2018-03-08T22:21:13.706Z,81.50
2018-03-08T22:23:47.348Z,81.50
2018-03-08T22:26:20.911Z,80.80
2018-03-08T22:28:54.493Z,81.90
2018-03-08T22:31:28.090Z,83.20
2018-03-08T22:34:01.575Z,82.40
2018-03-08T22:36:35.216Z,83.40
2018-03-08T22:39:08.762Z,82.40
2018-03-08T22:41:42.284Z,82.90
2018-03-08T22:44:15.795Z,84.70
2018-03-08T22:46:49.392Z,84.80
2018-03-08T22:49:22.975Z,89.90
2018-03-08T22:51:56.540Z,88.70
2018-03-08T22:54:30.217Z,87.30
2018-03-08T22:57:03.861Z,86.50
2018-03-08T22:59:37.621Z,86.10
2018-03-08T23:02:11.194Z,85.00
2018-03-08T23:04:45.528Z,84.70
2018-03-08T23:07:19.252Z,84.60
2018-03-08T23:09:52.923Z,84.00
2018-03-08T23:12:26.488Z,82.50
2018-03-08T23:15:00.029Z,80.90
2018-03-08T23:17:34.363Z,81.20
2018-03-08T23:20:08.857Z,81.20
2018-03-08T23:22:43.189Z,81.70
2018-03-08T23:25:16.903Z,81.50
2018-03-08T23:27:50.443Z,82.80
2018-03-08T23:30:24.072Z,81.50
2018-03-08T23:32:57.683Z,82.00
2018-03-08T23:35:31.392Z,82.90
2018-03-08T23:38:05.001Z,83.40
2018-03-08T23:40:38.601Z,83.10
2018-03-08T23:43:12.125Z,84.00
2018-03-08T23:45:46.570Z,85.50
2018-03-08T23:48:20.256Z,85.40
2018-03-08T23:50:54.622Z,87.20
2018-03-08T23:53:28.225Z,87.20
2018-03-08T23:56:02.338Z,87.90
2018-03-08T23:58:36.778Z,87.40
